sensor_id;sensor_type;location;lat;lon;timestamp;pressure;altitude;pressure_sealevel;temperature;humidity
64253;BME280;50592;52.958;-7.470;2023-02-10T00:00:22;102316.53;;;2.16;100.00
64253;BME280;50592;52.958;-7.470;2023-02-10T00:02:47;102324.41;;;2.14;100.00
64253;BME280;50592;52.958;-7.470;2023-02-10T00:05:13;102311.41;;;2.13;100.00
64253;BME280;50592;52.958;-7.470;2023-02-10T00:07:39;102311.31;;;2.16;100.00
64253;BME280;50592;52.958;-7.470;2023-02-10T00:10:05;102327.00;;;2.14;100.00
64253;BME280;50592;52.958;-7.470;2023-02-10T00:12:31;102314.91;;;2.12;100.00
64253;BME280;50592;52.958;-7.470;2023-02-10T00:14:56;102310.41;;;2.17;100.00
64253;BME280;50592;52.958;-7.470;2023-02-10T00:17:22;102309.53;;;2.18;100.00
64253;BME280;50592;52.958;-7.470;2023-02-10T00:19:48;102309.56;;;2.16;100.00
64253;BME280;50592;52.958;-7.470;2023-02-10T00:22:14;102307.84;;;2.15;100.00
64253;BME280;50592;52.958;-7.470;2023-02-10T00:24:39;102307.78;;;2.17;100.00
64253;BME280;50592;52.958;-7.470;2023-02-10T00:27:05;102301.69;;;2.18;100.00
64253;BME280;50592;52.958;-7.470;2023-02-10T00:29:31;102299.94;;;2.18;100.00
64253;BME280;50592;52.958;-7.470;2023-02-10T00:31:57;102300.69;;;2.22;100.00
64253;BME280;50592;52.958;-7.470;2023-02-10T00:34:23;102305.88;;;2.23;100.00
64253;BME280;50592;52.958;-7.470;2023-02-10T00:36:50;102309.25;;;2.27;100.00
64253;BME280;50592;52.958;-7.470;2023-02-10T00:39:17;102306.53;;;2.32;100.00
64253;BME280;50592;52.958;-7.470;2023-02-10T00:41:43;102286.41;;;2.35;100.00
64253;BME280;50592;52.958;-7.470;2023-02-10T00:44:09;102280.97;;;2.43;100.00
64253;BME280;50592;52.958;-7.470;2023-02-10T00:46:36;102278.31;;;2.45;100.00
64253;BME280;50592;52.958;-7.470;2023-02-10T00:49:04;102260.88;;;2.45;100.00
64253;BME280;50592;52.958;-7.470;2023-02-10T00:51:30;102264.41;;;2.44;100.00
64253;BME280;50592;52.958;-7.470;2023-02-10T00:53:56;102266.16;;;2.44;100.00
64253;BME280;50592;52.958;-7.470;2023-02-10T00:56:22;102277.44;;;2.44;100.00
64253;BME280;50592;52.958;-7.470;2023-02-10T00:58:48;102274.84;;;2.44;100.00
64253;BME280;50592;52.958;-7.470;2023-02-10T01:01:14;102277.41;;;2.46;100.00
64253;BME280;50592;52.958;-7.470;2023-02-10T01:03:40;102274.69;;;2.49;100.00
64253;BME280;50592;52.958;-7.470;2023-02-10T01:06:06;102272.91;;;2.51;100.00
64253;BME280;50592;52.958;-7.470;2023-02-10T01:08:33;102270.31;;;2.51;100.00
64253;BME280;50592;52.958;-7.470;2023-02-10T01:11:08;102280.78;;;2.50;100.00
64253;BME280;50592;52.958;-7.470;2023-02-10T01:13:36;102273.00;;;2.48;100.00
64253;BME280;50592;52.958;-7.470;2023-02-10T01:16:07;102269.34;;;2.54;100.00
64253;BME280;50592;52.958;-7.470;2023-02-10T01:18:36;102258.91;;;2.54;100.00
64253;BME280;50592;52.958;-7.470;2023-02-10T01:21:08;102250.81;;;2.62;100.00
64253;BME280;50592;52.958;-7.470;2023-02-10T01:23:34;102258.72;;;2.60;100.00
64253;BME280;50592;52.958;-7.470;2023-02-10T01:26:00;102263.09;;;2.59;100.00
64253;BME280;50592;52.958;-7.470;2023-02-10T01:28:26;102258.75;;;2.58;100.00
64253;BME280;50592;52.958;-7.470;2023-02-10T01:30:52;102255.16;;;2.63;100.00
64253;BME280;50592;52.958;-7.470;2023-02-10T01:33:18;102247.28;;;2.64;100.00
64253;BME280;50592;52.958;-7.470;2023-02-10T01:35:44;102247.16;;;2.69;100.00
64253;BME280;50592;52.958;-7.470;2023-02-10T01:38:09;102236.66;;;2.70;100.00
64253;BME280;50592;52.958;-7.470;2023-02-10T01:40:35;102242.59;;;2.74;100.00
64253;BME280;50592;52.958;-7.470;2023-02-10T01:43:01;102246.81;;;2.80;100.00
64253;BME280;50592;52.958;-7.470;2023-02-10T01:45:35;102234.50;;;2.83;100.00
64253;BME280;50592;52.958;-7.470;2023-02-10T01:48:03;102241.28;;;2.89;100.00
64253;BME280;50592;52.958;-7.470;2023-02-10T01:53:15;102231.66;;;2.91;100.00
64253;BME280;50592;52.958;-7.470;2023-02-10T01:55:44;102234.06;;;2.97;100.00
64253;BME280;50592;52.958;-7.470;2023-02-10T01:58:13;102234.94;;;2.96;100.00
64253;BME280;50592;52.958;-7.470;2023-02-10T02:00:41;102231.50;;;2.96;100.00
64253;BME280;50592;52.958;-7.470;2023-02-10T02:03:07;102228.03;;;2.95;100.00
64253;BME280;50592;52.958;-7.470;2023-02-10T02:05:38;102226.31;;;2.94;100.00
64253;BME280;50592;52.958;-7.470;2023-02-10T02:08:16;102220.22;;;2.94;100.00
64253;BME280;50592;52.958;-7.470;2023-02-10T02:13:39;102208.81;;;2.96;100.00
64253;BME280;50592;52.958;-7.470;2023-02-10T02:32:49;102200.03;;;2.99;100.00
64253;BME280;50592;52.958;-7.470;2023-02-10T02:35:34;102210.50;;;2.99;100.00
64253;BME280;50592;52.958;-7.470;2023-02-10T02:38:02;102211.44;;;2.96;100.00
64253;BME280;50592;52.958;-7.470;2023-02-10T02:40:28;102209.72;;;2.95;100.00
64253;BME280;50592;52.958;-7.470;2023-02-10T02:42:54;102197.63;;;2.93;100.00
64253;BME280;50592;52.958;-7.470;2023-02-10T02:46:12;102205.31;;;2.97;100.00
64253;BME280;50592;52.958;-7.470;2023-02-10T02:48:38;102194.78;;;3.01;100.00
64253;BME280;50592;52.958;-7.470;2023-02-10T02:51:14;102193.16;;;2.96;100.00
64253;BME280;50592;52.958;-7.470;2023-02-10T02:58:58;102179.81;;;3.04;100.00
64253;BME280;50592;52.958;-7.470;2023-02-10T03:01:44;102177.97;;;3.08;100.00
64253;BME280;50592;52.958;-7.470;2023-02-10T03:04:15;102179.66;;;3.10;100.00
64253;BME280;50592;52.958;-7.470;2023-02-10T03:06:42;102179.59;;;3.12;100.00
64253;BME280;50592;52.958;-7.470;2023-02-10T03:09:08;102177.66;;;3.17;100.00
64253;BME280;50592;52.958;-7.470;2023-02-10T03:11:34;102174.88;;;3.22;100.00
64253;BME280;50592;52.958;-7.470;2023-02-10T03:14:00;102175.63;;;3.26;100.00
64253;BME280;50592;52.958;-7.470;2023-02-10T03:16:26;102158.25;;;3.25;100.00
64253;BME280;50592;52.958;-7.470;2023-02-10T03:18:51;102164.44;;;3.22;100.00
64253;BME280;50592;52.958;-7.470;2023-02-10T03:21:17;102155.59;;;3.26;100.00
64253;BME280;50592;52.958;-7.470;2023-02-10T03:23:43;102157.19;;;3.30;100.00
64253;BME280;50592;52.958;-7.470;2023-02-10T03:26:09;102158.81;;;3.33;100.00
64253;BME280;50592;52.958;-7.470;2023-02-10T03:28:35;102161.38;;;3.34;100.00
64253;BME280;50592;52.958;-7.470;2023-02-10T03:31:06;102162.19;;;3.37;100.00
64253;BME280;50592;52.958;-7.470;2023-02-10T03:33:33;102155.19;;;3.37;100.00
64253;BME280;50592;52.958;-7.470;2023-02-10T03:36:00;102158.53;;;3.42;100.00
64253;BME280;50592;52.958;-7.470;2023-02-10T03:38:27;102151.41;;;3.46;100.00
64253;BME280;50592;52.958;-7.470;2023-02-10T03:40:53;102148.56;;;3.52;100.00
64253;BME280;50592;52.958;-7.470;2023-02-10T03:43:20;102149.31;;;3.56;100.00
64253;BME280;50592;52.958;-7.470;2023-02-10T03:45:46;102151.88;;;3.57;100.00
64253;BME280;50592;52.958;-7.470;2023-02-10T03:48:12;102148.44;;;3.55;100.00
64253;BME280;50592;52.958;-7.470;2023-02-10T03:50:38;102151.06;;;3.55;100.00
64253;BME280;50592;52.958;-7.470;2023-02-10T03:53:05;102143.22;;;3.55;100.00
64253;BME280;50592;52.958;-7.470;2023-02-10T03:55:31;102145.72;;;3.58;100.00
64253;BME280;50592;52.958;-7.470;2023-02-10T03:57:57;102143.16;;;3.57;100.00
64253;BME280;50592;52.958;-7.470;2023-02-10T04:00:23;102139.59;;;3.59;100.00
64253;BME280;50592;52.958;-7.470;2023-02-10T04:02:49;102145.59;;;3.62;100.00
64253;BME280;50592;52.958;-7.470;2023-02-10T04:05:15;102137.81;;;3.60;100.00
64253;BME280;50592;52.958;-7.470;2023-02-10T04:07:40;102138.63;;;3.62;100.00
64253;BME280;50592;52.958;-7.470;2023-02-10T04:10:06;102138.44;;;3.67;100.00
64253;BME280;50592;52.958;-7.470;2023-02-10T04:12:32;102129.78;;;3.66;100.00
64253;BME280;50592;52.958;-7.470;2023-02-10T04:14:58;102132.34;;;3.68;100.00
64253;BME280;50592;52.958;-7.470;2023-02-10T04:17:24;102127.88;;;3.70;100.00
64253;BME280;50592;52.958;-7.470;2023-02-10T04:19:50;102131.22;;;3.74;100.00
64253;BME280;50592;52.958;-7.470;2023-02-10T04:22:15;102125.94;;;3.75;100.00
64253;BME280;50592;52.958;-7.470;2023-02-10T04:24:41;102124.19;;;3.76;100.00
64253;BME280;50592;52.958;-7.470;2023-02-10T04:27:07;102131.13;;;3.77;100.00
64253;BME280;50592;52.958;-7.470;2023-02-10T04:29:33;102127.59;;;3.78;100.00
64253;BME280;50592;52.958;-7.470;2023-02-10T04:32:04;102122.47;;;3.75;100.00
64253;BME280;50592;52.958;-7.470;2023-02-10T04:34:30;102116.34;;;3.76;100.00
64253;BME280;50592;52.958;-7.470;2023-02-10T04:36:55;102128.44;;;3.78;100.00
64253;BME280;50592;52.958;-7.470;2023-02-10T04:39:21;102133.50;;;3.83;100.00
64253;BME280;50592;52.958;-7.470;2023-02-10T04:41:47;102126.41;;;3.87;100.00
64253;BME280;50592;52.958;-7.470;2023-02-10T04:44:12;102132.47;;;3.87;100.00
64253;BME280;50592;52.958;-7.470;2023-02-10T04:46:38;102128.78;;;3.93;100.00
64253;BME280;50592;52.958;-7.470;2023-02-10T04:49:04;102132.28;;;3.92;100.00
64253;BME280;50592;52.958;-7.470;2023-02-10T04:51:30;102133.09;;;3.94;100.00
64253;BME280;50592;52.958;-7.470;2023-02-10T04:53:55;102130.28;;;3.99;100.00
64253;BME280;50592;52.958;-7.470;2023-02-10T04:56:21;102137.25;;;4.00;100.00
64253;BME280;50592;52.958;-7.470;2023-02-10T04:58:47;102126.78;;;4.00;100.00
64253;BME280;50592;52.958;-7.470;2023-02-10T05:01:13;102125.81;;;4.02;100.00
64253;BME280;50592;52.958;-7.470;2023-02-10T05:03:39;102119.59;;;4.05;100.00
64253;BME280;50592;52.958;-7.470;2023-02-10T05:06:10;102118.50;;;4.11;100.00
64253;BME280;50592;52.958;-7.470;2023-02-10T05:08:35;102116.84;;;4.08;100.00
64253;BME280;50592;52.958;-7.470;2023-02-10T05:11:07;102121.19;;;4.09;100.00
64253;BME280;50592;52.958;-7.470;2023-02-10T05:13:34;102123.19;;;4.02;100.00
64253;BME280;50592;52.958;-7.470;2023-02-10T05:15:59;102115.50;;;3.97;100.00
64253;BME280;50592;52.958;-7.470;2023-02-10T05:18:32;102111.16;;;3.98;100.00
64253;BME280;50592;52.958;-7.470;2023-02-10T05:20:59;102112.09;;;3.95;100.00
64253;BME280;50592;52.958;-7.470;2023-02-10T05:23:26;102112.03;;;3.97;100.00
64253;BME280;50592;52.958;-7.470;2023-02-10T05:25:52;102112.78;;;4.01;100.00
64253;BME280;50592;52.958;-7.470;2023-02-10T05:28:18;102109.28;;;4.00;100.00
64253;BME280;50592;52.958;-7.470;2023-02-10T05:30:44;102100.50;;;4.03;100.00
64253;BME280;50592;52.958;-7.470;2023-02-10T05:33:10;102113.41;;;4.07;100.00
64253;BME280;50592;52.958;-7.470;2023-02-10T05:35:35;102111.63;;;4.08;100.00
64253;BME280;50592;52.958;-7.470;2023-02-10T05:38:01;102116.00;;;4.07;100.00
64253;BME280;50592;52.958;-7.470;2023-02-10T05:40:31;102120.19;;;4.12;100.00
64253;BME280;50592;52.958;-7.470;2023-02-10T05:42:57;102119.41;;;4.09;100.00
64253;BME280;50592;52.958;-7.470;2023-02-10T05:45:22;102121.06;;;4.12;100.00
64253;BME280;50592;52.958;-7.470;2023-02-10T05:47:49;102121.06;;;4.12;100.00
64253;BME280;50592;52.958;-7.470;2023-02-10T05:50:16;102122.75;;;4.13;100.00
64253;BME280;50592;52.958;-7.470;2023-02-10T05:52:42;102116.72;;;4.11;100.00
64253;BME280;50592;52.958;-7.470;2023-02-10T05:55:08;102113.16;;;4.14;100.00
64253;BME280;50592;52.958;-7.470;2023-02-10T05:57:35;102115.66;;;4.17;100.00
64253;BME280;50592;52.958;-7.470;2023-02-10T06:00:03;102111.09;;;4.22;100.00
64253;BME280;50592;52.958;-7.470;2023-02-10T06:02:38;102120.56;;;4.25;100.00
64253;BME280;50592;52.958;-7.470;2023-02-10T06:05:04;102111.75;;;4.27;100.00
64253;BME280;50592;52.958;-7.470;2023-02-10T06:07:29;102113.47;;;4.28;100.00
64253;BME280;50592;52.958;-7.470;2023-02-10T06:09:55;102115.16;;;4.29;100.00
64253;BME280;50592;52.958;-7.470;2023-02-10T06:12:21;102110.84;;;4.28;100.00
64253;BME280;50592;52.958;-7.470;2023-02-10T06:14:46;102113.41;;;4.30;100.00
64253;BME280;50592;52.958;-7.470;2023-02-10T06:17:12;102124.19;;;4.43;100.00
64253;BME280;50592;52.958;-7.470;2023-02-10T06:19:39;102126.03;;;4.63;100.00
64253;BME280;50592;52.958;-7.470;2023-02-10T06:22:06;102125.31;;;4.80;100.00
64253;BME280;50592;52.958;-7.470;2023-02-10T06:24:32;102118.69;;;4.92;100.00
64253;BME280;50592;52.958;-7.470;2023-02-10T06:26:58;102110.44;;;5.02;100.00
64253;BME280;50592;52.958;-7.470;2023-02-10T06:29:24;102119.59;;;5.12;100.00
64253;BME280;50592;52.958;-7.470;2023-02-10T06:31:50;102114.09;;;5.18;100.00
64253;BME280;50592;52.958;-7.470;2023-02-10T06:34:16;102110.34;;;5.24;100.00
64253;BME280;50592;52.958;-7.470;2023-02-10T06:36:42;102103.13;;;5.29;100.00
64253;BME280;50592;52.958;-7.470;2023-02-10T06:39:07;102100.38;;;5.32;100.00
64253;BME280;50592;52.958;-7.470;2023-02-10T06:41:33;102103.78;;;5.34;100.00
64253;BME280;50592;52.958;-7.470;2023-02-10T06:43:59;102105.41;;;5.37;100.00
64253;BME280;50592;52.958;-7.470;2023-02-10T06:46:26;102107.88;;;5.40;100.00
64253;BME280;50592;52.958;-7.470;2023-02-10T06:48:52;102110.38;;;5.43;100.00
64253;BME280;50592;52.958;-7.470;2023-02-10T06:51:18;102100.69;;;5.45;100.00
64253;BME280;50592;52.958;-7.470;2023-02-10T06:53:44;102097.13;;;5.46;100.00
64253;BME280;50592;52.958;-7.470;2023-02-10T06:56:11;102107.41;;;5.51;100.00
64253;BME280;50592;52.958;-7.470;2023-02-10T06:58:37;102100.47;;;5.50;100.00
64253;BME280;50592;52.958;-7.470;2023-02-10T07:01:10;102097.69;;;5.53;100.00
64253;BME280;50592;52.958;-7.470;2023-02-10T07:03:37;102090.91;;;5.49;100.00
64253;BME280;50592;52.958;-7.470;2023-02-10T07:06:03;102093.38;;;5.52;100.00
64253;BME280;50592;52.958;-7.470;2023-02-10T07:08:29;102099.38;;;5.54;100.00
64253;BME280;50592;52.958;-7.470;2023-02-10T07:10:55;102099.31;;;5.56;100.00
64253;BME280;50592;52.958;-7.470;2023-02-10T07:13:20;102096.63;;;5.57;100.00
64253;BME280;50592;52.958;-7.470;2023-02-10T07:15:46;102084.31;;;5.59;100.00
64253;BME280;50592;52.958;-7.470;2023-02-10T07:18:12;102088.56;;;5.62;100.00
64253;BME280;50592;52.958;-7.470;2023-02-10T07:20:38;102101.63;;;5.64;100.00
64253;BME280;50592;52.958;-7.470;2023-02-10T07:23:03;102090.19;;;5.65;100.00
64253;BME280;50592;52.958;-7.470;2023-02-10T07:25:29;102095.44;;;5.65;100.00
64253;BME280;50592;52.958;-7.470;2023-02-10T07:27:55;102096.22;;;5.67;100.00
64253;BME280;50592;52.958;-7.470;2023-02-10T07:30:21;102095.28;;;5.68;100.00
64253;BME280;50592;52.958;-7.470;2023-02-10T07:32:47;102099.47;;;5.72;100.00
64253;BME280;50592;52.958;-7.470;2023-02-10T07:35:13;102100.41;;;5.71;100.00
64253;BME280;50592;52.958;-7.470;2023-02-10T07:37:39;102097.63;;;5.74;100.00
64253;BME280;50592;52.958;-7.470;2023-02-10T07:40:06;102100.97;;;5.78;100.00
64253;BME280;50592;52.958;-7.470;2023-02-10T07:42:32;102100.91;;;5.79;100.00
64253;BME280;50592;52.958;-7.470;2023-02-10T07:45:13;102104.28;;;5.81;100.00
64253;BME280;50592;52.958;-7.470;2023-02-10T07:47:39;102099.75;;;5.85;100.00
64253;BME280;50592;52.958;-7.470;2023-02-10T07:50:05;102105.78;;;5.87;100.00
64253;BME280;50592;52.958;-7.470;2023-02-10T07:52:30;102104.78;;;5.90;100.00
64253;BME280;50592;52.958;-7.470;2023-02-10T07:54:56;102113.44;;;5.92;100.00
64253;BME280;50592;52.958;-7.470;2023-02-10T07:57:22;102108.03;;;5.95;100.00
64253;BME280;50592;52.958;-7.470;2023-02-10T07:59:48;102110.66;;;5.95;100.00
64253;BME280;50592;52.958;-7.470;2023-02-10T08:02:14;102103.50;;;5.99;100.00
64253;BME280;50592;52.958;-7.470;2023-02-10T08:04:39;102112.16;;;6.01;100.00
64253;BME280;50592;52.958;-7.470;2023-02-10T08:07:05;102125.00;;;6.07;100.00
64253;BME280;50592;52.958;-7.470;2023-02-10T08:09:31;102121.41;;;6.10;100.00
64253;BME280;50592;52.958;-7.470;2023-02-10T08:11:57;102125.44;;;6.17;100.00
64253;BME280;50592;52.958;-7.470;2023-02-10T08:14:22;102125.34;;;6.18;100.00
64253;BME280;50592;52.958;-7.470;2023-02-10T08:16:49;102125.13;;;6.23;100.00
64253;BME280;50592;52.958;-7.470;2023-02-10T08:19:15;102131.94;;;6.27;100.00
64253;BME280;50592;52.958;-7.470;2023-02-10T08:21:41;102136.13;;;6.31;100.00
64253;BME280;50592;52.958;-7.470;2023-02-10T08:24:07;102135.19;;;6.32;100.00
64253;BME280;50592;52.958;-7.470;2023-02-10T08:26:33;102134.28;;;6.33;100.00
64253;BME280;50592;52.958;-7.470;2023-02-10T08:29:00;102128.00;;;6.36;100.00
64253;BME280;50592;52.958;-7.470;2023-02-10T08:31:27;102135.81;;;6.38;100.00
64253;BME280;50592;52.958;-7.470;2023-02-10T08:33:52;102134.81;;;6.40;100.00
64253;BME280;50592;52.958;-7.470;2023-02-10T08:36:20;102138.06;;;6.45;100.00
64253;BME280;50592;52.958;-7.470;2023-02-10T08:38:48;102139.72;;;6.48;100.00
64253;BME280;50592;52.958;-7.470;2023-02-10T08:41:15;102139.63;;;6.50;100.00
64253;BME280;50592;52.958;-7.470;2023-02-10T08:43:41;102150.00;;;6.53;100.00
64253;BME280;50592;52.958;-7.470;2023-02-10T08:46:07;102148.97;;;6.55;100.00
64253;BME280;50592;52.958;-7.470;2023-02-10T08:48:33;102150.66;;;6.56;100.00
64253;BME280;50592;52.958;-7.470;2023-02-10T08:51:00;102162.69;;;6.62;100.00
64253;BME280;50592;52.958;-7.470;2023-02-10T08:53:30;102153.84;;;6.63;100.00
64253;BME280;50592;52.958;-7.470;2023-02-10T08:56:04;102154.41;;;6.70;100.00
64253;BME280;50592;52.958;-7.470;2023-02-10T08:58:49;102162.28;;;6.70;100.00
64253;BME280;50592;52.958;-7.470;2023-02-10T09:01:19;102161.97;;;6.76;100.00
64253;BME280;50592;52.958;-7.470;2023-02-10T09:03:46;102166.22;;;6.79;100.00
64253;BME280;50592;52.958;-7.470;2023-02-10T09:06:18;102170.25;;;6.86;100.00
64253;BME280;50592;52.958;-7.470;2023-02-10T09:08:45;102165.84;;;6.87;100.00
64253;BME280;50592;52.958;-7.470;2023-02-10T09:11:13;102172.66;;;6.91;100.00
64253;BME280;50592;52.958;-7.470;2023-02-10T09:13:39;102178.66;;;6.93;100.00
64253;BME280;50592;52.958;-7.470;2023-02-10T09:16:05;102172.44;;;6.95;100.00
64253;BME280;50592;52.958;-7.470;2023-02-10T09:18:32;102179.22;;;7.00;100.00
64253;BME280;50592;52.958;-7.470;2023-02-10T09:20:59;102172.75;;;7.07;100.00
64253;BME280;50592;52.958;-7.470;2023-02-10T09:23:24;102175.28;;;7.09;100.00
64253;BME280;50592;52.958;-7.470;2023-02-10T09:25:55;102171.41;;;7.16;100.00
64253;BME280;50592;52.958;-7.470;2023-02-10T09:28:21;102173.88;;;7.19;100.00
64253;BME280;50592;52.958;-7.470;2023-02-10T09:30:47;102189.34;;;7.25;100.00
64253;BME280;50592;52.958;-7.470;2023-02-10T09:33:13;102182.06;;;7.30;100.00
64253;BME280;50592;52.958;-7.470;2023-02-10T09:35:39;102183.53;;;7.36;100.00
64253;BME280;50592;52.958;-7.470;2023-02-10T09:38:07;102186.69;;;7.43;100.00
64253;BME280;50592;52.958;-7.470;2023-02-10T09:40:41;102194.94;;;7.53;100.00
64253;BME280;50592;52.958;-7.470;2023-02-10T09:43:28;102190.13;;;7.61;100.00
64253;BME280;50592;52.958;-7.470;2023-02-10T09:46:05;102202.97;;;7.67;100.00
64253;BME280;50592;52.958;-7.470;2023-02-10T09:48:50;102206.03;;;7.76;100.00
64253;BME280;50592;52.958;-7.470;2023-02-10T09:51:47;102199.69;;;7.80;100.00
64253;BME280;50592;52.958;-7.470;2023-02-10T09:54:16;102202.06;;;7.85;100.00
64253;BME280;50592;52.958;-7.470;2023-02-10T09:56:42;102208.03;;;7.88;100.00
64253;BME280;50592;52.958;-7.470;2023-02-10T09:59:14;102208.34;;;7.98;100.00
64253;BME280;50592;52.958;-7.470;2023-02-10T10:01:54;102203.84;;;8.00;100.00
64253;BME280;50592;52.958;-7.470;2023-02-10T10:04:22;102204.47;;;8.05;100.00
64253;BME280;50592;52.958;-7.470;2023-02-10T10:06:50;102207.69;;;8.11;100.00
64253;BME280;50592;52.958;-7.470;2023-02-10T10:11:46;102213.53;;;8.16;100.00
64253;BME280;50592;52.958;-7.470;2023-02-10T10:14:22;102213.38;;;8.19;100.00
64253;BME280;50592;52.958;-7.470;2023-02-10T10:31:15;102223.91;;;8.51;100.00
64253;BME280;50592;52.958;-7.470;2023-02-10T10:33:51;102219.09;;;8.60;100.00
64253;BME280;50592;52.958;-7.470;2023-02-10T10:36:22;102219.56;;;8.66;100.00
64253;BME280;50592;52.958;-7.470;2023-02-10T10:38:53;102228.00;;;8.73;100.00
64253;BME280;50592;52.958;-7.470;2023-02-10T10:41:30;102229.34;;;8.80;100.00
64253;BME280;50592;52.958;-7.470;2023-02-10T10:43:57;102231.13;;;8.80;100.00
64253;BME280;50592;52.958;-7.470;2023-02-10T10:46:35;102228.81;;;8.90;100.00
64253;BME280;50592;52.958;-7.470;2023-02-10T10:49:05;102227.78;;;8.92;100.00
64253;BME280;50592;52.958;-7.470;2023-02-10T10:51:31;102222.25;;;8.97;100.00
64253;BME280;50592;52.958;-7.470;2023-02-10T10:54:00;102227.34;;;9.00;100.00
64253;BME280;50592;52.958;-7.470;2023-02-10T10:56:47;102219.06;;;9.06;100.00
64253;BME280;50592;52.958;-7.470;2023-02-10T10:59:18;102225.97;;;9.09;100.00
64253;BME280;50592;52.958;-7.470;2023-02-10T11:01:47;102226.59;;;9.13;100.00
64253;BME280;50592;52.958;-7.470;2023-02-10T11:04:24;102223.59;;;9.19;100.00
64253;BME280;50592;52.958;-7.470;2023-02-10T11:06:56;102225.03;;;9.25;100.00
64253;BME280;50592;52.958;-7.470;2023-02-10T11:09:33;102226.47;;;9.30;100.00
64253;BME280;50592;52.958;-7.470;2023-02-10T11:12:05;102222.81;;;9.33;100.00
64253;BME280;50592;52.958;-7.470;2023-02-10T11:14:41;102231.47;;;9.35;100.00
64253;BME280;50592;52.958;-7.470;2023-02-10T11:19:59;102228.63;;;9.38;100.00
64253;BME280;50592;52.958;-7.470;2023-02-10T11:22:27;102238.00;;;9.44;100.00
64253;BME280;50592;52.958;-7.470;2023-02-10T11:24:58;102234.13;;;9.50;100.00
64253;BME280;50592;52.958;-7.470;2023-02-10T11:27:24;102238.34;;;9.52;100.00
64253;BME280;50592;52.958;-7.470;2023-02-10T11:29:56;102238.84;;;9.59;100.00
64253;BME280;50592;52.958;-7.470;2023-02-10T11:32:25;102246.75;;;9.59;100.00
64253;BME280;50592;52.958;-7.470;2023-02-10T11:34:54;102244.88;;;9.61;100.00
64253;BME280;50592;52.958;-7.470;2023-02-10T11:37:27;102244.88;;;9.61;100.00
64253;BME280;50592;52.958;-7.470;2023-02-10T11:39:55;102250.66;;;9.68;100.00
64253;BME280;50592;52.958;-7.470;2023-02-10T11:42:33;102246.00;;;9.72;100.00
64253;BME280;50592;52.958;-7.470;2023-02-10T11:45:17;102238.00;;;9.73;100.00
64253;BME280;50592;52.958;-7.470;2023-02-10T11:47:45;102237.06;;;9.74;100.00
64253;BME280;50592;52.958;-7.470;2023-02-10T11:50:25;102234.97;;;9.79;100.00
64253;BME280;50592;52.958;-7.470;2023-02-10T11:52:52;102232.81;;;9.86;100.00
64253;BME280;50592;52.958;-7.470;2023-02-10T11:55:18;102228.94;;;9.92;100.00
64253;BME280;50592;52.958;-7.470;2023-02-10T11:58:17;102222.53;;;9.96;100.00
64253;BME280;50592;52.958;-7.470;2023-02-10T12:06:06;102220.25;;;10.04;100.00
64253;BME280;50592;52.958;-7.470;2023-02-10T12:08:37;102219.00;;;10.10;100.00
64253;BME280;50592;52.958;-7.470;2023-02-10T12:11:27;102208.59;;;10.22;100.00
64253;BME280;50592;52.958;-7.470;2023-02-10T12:17:45;102212.00;;;10.24;100.00
64253;BME280;50592;52.958;-7.470;2023-02-10T12:37:19;102201.31;;;10.40;100.00
64253;BME280;50592;52.958;-7.470;2023-02-10T12:54:03;102190.97;;;10.50;100.00
64253;BME280;50592;52.958;-7.470;2023-02-10T12:56:43;102187.31;;;10.52;100.00
64253;BME280;50592;52.958;-7.470;2023-02-10T12:59:18;102172.94;;;10.57;100.00
64253;BME280;50592;52.958;-7.470;2023-02-10T13:01:51;102176.44;;;10.57;100.00
64253;BME280;50592;52.958;-7.470;2023-02-10T13:04:31;102180.56;;;10.61;100.00
64253;BME280;50592;52.958;-7.470;2023-02-10T13:07:01;102178.75;;;10.62;100.00
64253;BME280;50592;52.958;-7.470;2023-02-10T13:14:45;102179.50;;;10.64;100.00
64253;BME280;50592;52.958;-7.470;2023-02-10T13:17:13;102175.16;;;10.63;100.00
64253;BME280;50592;52.958;-7.470;2023-02-10T13:19:50;102181.84;;;10.69;100.00
64253;BME280;50592;52.958;-7.470;2023-02-10T13:33:17;102178.56;;;10.65;100.00
64253;BME280;50592;52.958;-7.470;2023-02-10T13:35:46;102176.84;;;10.64;100.00
64253;BME280;50592;52.958;-7.470;2023-02-10T13:38:17;102180.69;;;10.73;100.00
64253;BME280;50592;52.958;-7.470;2023-02-10T13:40:49;102181.44;;;10.75;100.00
64253;BME280;50592;52.958;-7.470;2023-02-10T13:43:31;102166.94;;;10.81;100.00
64253;BME280;50592;52.958;-7.470;2023-02-10T13:46:01;102171.28;;;10.82;100.00
64253;BME280;50592;52.958;-7.470;2023-02-10T13:48:31;102178.19;;;10.84;100.00
64253;BME280;50592;52.958;-7.470;2023-02-10T13:51:06;102175.53;;;10.84;100.00
64253;BME280;50592;52.958;-7.470;2023-02-10T14:04:52;102178.91;;;10.86;100.00
64253;BME280;50592;52.958;-7.470;2023-02-10T14:13:01;102179.34;;;10.93;100.00
64253;BME280;50592;52.958;-7.470;2023-02-10T14:15:31;102170.75;;;10.89;100.00
64253;BME280;50592;52.958;-7.470;2023-02-10T14:18:02;102169.06;;;10.88;100.00
64253;BME280;50592;52.958;-7.470;2023-02-10T14:20:33;102173.31;;;10.91;100.00
64253;BME280;50592;52.958;-7.470;2023-02-10T14:23:01;102172.78;;;10.86;100.00
64253;BME280;50592;52.958;-7.470;2023-02-10T14:25:40;102177.22;;;10.85;100.00
64253;BME280;50592;52.958;-7.470;2023-02-10T14:28:19;102175.34;;;10.87;100.00
64253;BME280;50592;52.958;-7.470;2023-02-10T14:30:50;102176.47;;;10.83;100.00
64253;BME280;50592;52.958;-7.470;2023-02-10T14:35:55;102176.97;;;10.75;100.00
64253;BME280;50592;52.958;-7.470;2023-02-10T14:38:24;102176.75;;;10.65;100.00
64253;BME280;50592;52.958;-7.470;2023-02-10T14:40:52;102179.06;;;10.57;100.00
64253;BME280;50592;52.958;-7.470;2023-02-10T14:43:23;102177.56;;;10.53;100.00
64253;BME280;50592;52.958;-7.470;2023-02-10T14:45:49;102176.94;;;10.49;100.00
64253;BME280;50592;52.958;-7.470;2023-02-10T14:48:15;102176.06;;;10.49;100.00